createdAt,value
2018-06-01T00:00:01.812Z,2.58
2018-06-01T00:02:29.492Z,3.10
2018-06-01T00:04:57.257Z,2.45
2018-06-01T00:07:24.926Z,2.40
2018-06-01T00:09:52.699Z,2.53
2018-06-01T00:12:20.479Z,2.53
2018-06-01T00:14:48.173Z,2.30
2018-06-01T00:17:15.948Z,2.83
2018-06-01T00:19:43.699Z,2.70
2018-06-01T00:22:11.476Z,3.15
2018-06-01T00:24:39.180Z,2.85
2018-06-01T00:27:06.949Z,2.70
2018-06-01T00:29:34.703Z,3.03
2018-06-01T00:32:02.368Z,3.42
2018-06-01T00:34:30.177Z,3.00
2018-06-01T00:36:57.953Z,3.75
2018-06-01T00:39:25.632Z,3.95
2018-06-01T00:41:53.491Z,3.13
2018-06-01T00:44:21.288Z,3.25
2018-06-01T00:46:48.952Z,3.42
2018-06-01T00:49:16.915Z,3.70
2018-06-01T00:51:44.689Z,3.83
2018-06-01T00:54:12.465Z,3.80
2018-06-01T00:56:40.242Z,3.05
2018-06-01T00:59:08.025Z,3.70
2018-06-01T01:01:35.712Z,3.30
2018-06-01T01:04:03.492Z,3.53
2018-06-01T01:06:31.245Z,2.83
2018-06-01T01:08:58.940Z,3.35
2018-06-01T01:11:26.598Z,3.05
2018-06-01T01:13:54.473Z,2.95
2018-06-01T01:16:22.480Z,3.20
2018-06-01T01:18:50.368Z,4.00
2018-06-01T01:21:18.025Z,3.50
2018-06-01T01:23:45.883Z,3.30
2018-06-01T01:26:13.557Z,3.47
2018-06-01T01:28:41.229Z,3.60
2018-06-01T01:31:09.006Z,3.65
2018-06-01T01:33:36.789Z,4.10
2018-06-01T01:36:04.581Z,3.45
2018-06-01T01:38:32.341Z,4.27
2018-06-01T01:41:00.214Z,4.35
2018-06-01T01:43:27.993Z,3.12
2018-06-01T01:45:55.874Z,3.60
2018-06-01T01:48:23.571Z,3.83
2018-06-01T01:50:51.422Z,4.03
2018-06-01T01:53:19.065Z,3.60
2018-06-01T01:55:46.802Z,5.95
2018-06-01T01:58:14.648Z,6.97
2018-06-01T02:00:42.344Z,4.97
2018-06-01T02:03:10.100Z,4.87
2018-06-01T02:05:37.770Z,4.12
2018-06-01T02:08:05.468Z,4.70
2018-06-01T02:10:33.227Z,4.03
2018-06-01T02:13:01.000Z,4.18
2018-06-01T02:15:28.661Z,4.28
2018-06-01T02:17:56.450Z,4.20
2018-06-01T02:20:24.301Z,5.15
2018-06-01T02:22:52.106Z,4.15
2018-06-01T02:25:19.882Z,3.60
2018-06-01T02:27:47.759Z,4.00
2018-06-01T02:30:15.462Z,4.37
2018-06-01T02:32:43.212Z,5.25
2018-06-01T02:35:10.913Z,4.30
2018-06-01T02:37:38.770Z,4.85
2018-06-01T02:40:06.467Z,5.00
2018-06-01T02:42:34.323Z,5.30
2018-06-01T02:45:02.100Z,5.67
2018-06-01T02:47:29.875Z,5.65
2018-06-01T02:49:57.578Z,6.75
2018-06-01T02:52:25.429Z,4.63
2018-06-01T02:54:53.083Z,3.95
2018-06-01T02:57:20.913Z,5.68
2018-06-01T02:59:48.656Z,5.72
2018-06-01T03:02:16.287Z,6.00
2018-06-01T03:04:44.736Z,4.75
2018-06-01T03:07:12.400Z,4.97
2018-06-01T03:09:40.089Z,6.07
2018-06-01T03:12:07.770Z,6.28
2018-06-01T03:14:35.548Z,5.87
2018-06-01T03:17:03.497Z,6.68
2018-06-01T03:19:31.205Z,5.78
2018-06-01T03:21:58.882Z,4.78
2018-06-01T03:24:26.568Z,5.80
2018-06-01T03:26:54.335Z,9.90
2018-06-01T03:29:22.115Z,9.80
2018-06-01T03:31:49.881Z,8.80
2018-06-01T03:34:17.623Z,5.22
2018-06-01T03:36:45.321Z,5.78
2018-06-01T03:39:12.944Z,5.43
2018-06-01T03:41:40.669Z,6.12
2018-06-01T03:44:08.309Z,4.85
2018-06-01T03:46:36.017Z,4.78
2018-06-01T03:49:03.699Z,5.12
2018-06-01T03:51:31.473Z,6.32
2018-06-01T03:53:59.225Z,6.10
2018-06-01T03:56:26.998Z,6.72
2018-06-01T03:58:54.776Z,7.07
2018-06-01T04:01:22.577Z,6.57
2018-06-01T04:03:50.252Z,7.80
2018-06-01T04:06:18.101Z,6.80
2018-06-01T04:08:45.802Z,7.05
2018-06-01T04:11:13.661Z,10.07
2018-06-01T04:13:41.301Z,9.13
2018-06-01T04:16:09.717Z,7.18
2018-06-01T04:18:37.389Z,7.00
2018-06-01T04:21:05.172Z,7.72
2018-06-01T04:23:32.842Z,7.10
2018-06-01T04:26:00.545Z,13.20
2018-06-01T04:28:28.500Z,8.00
2018-06-01T04:30:56.196Z,8.63
2018-06-01T04:33:24.054Z,8.37
2018-06-01T04:35:51.784Z,13.73
2018-06-01T04:38:20.638Z,7.75
2018-06-01T04:40:48.328Z,8.73
2018-06-01T04:43:16.014Z,9.23
2018-06-01T04:45:43.644Z,6.80
2018-06-01T04:48:11.324Z,6.47
2018-06-01T04:50:39.125Z,5.30
2018-06-01T04:53:06.879Z,13.30
2018-06-01T04:55:34.521Z,7.72
2018-06-01T04:58:03.080Z,9.20
2018-06-01T05:00:30.749Z,10.88
2018-06-01T05:02:58.524Z,13.10
2018-06-01T05:05:26.297Z,10.77
2018-06-01T05:07:53.947Z,11.88
2018-06-01T05:10:21.762Z,10.18
2018-06-01T05:12:49.704Z,10.52
2018-06-01T05:15:17.480Z,10.55
2018-06-01T05:17:45.184Z,11.07
2018-06-01T05:20:13.032Z,14.00
2018-06-01T05:22:40.712Z,8.10
2018-06-01T05:25:08.412Z,10.20
2018-06-01T05:27:36.053Z,11.45
2018-06-01T05:30:03.932Z,13.05
2018-06-01T05:32:31.576Z,14.57
2018-06-01T05:35:00.099Z,12.60
2018-06-01T05:37:27.875Z,10.68
2018-06-01T05:39:55.685Z,10.85
2018-06-01T05:42:23.329Z,11.13
2018-06-01T05:44:51.206Z,8.35
2018-06-01T05:47:19.015Z,9.15
2018-06-01T05:49:47.504Z,10.75
2018-06-01T05:52:15.147Z,6.93
2018-06-01T05:54:42.945Z,7.43
2018-06-01T05:57:10.576Z,10.07
2018-06-01T05:59:38.374Z,9.07
2018-06-01T06:02:06.068Z,9.30
2018-06-01T06:04:33.835Z,10.57
2018-06-01T06:07:01.633Z,11.43
2018-06-01T06:09:29.267Z,9.32
2018-06-01T06:11:56.947Z,8.27
2018-06-01T06:14:24.656Z,13.40
2018-06-01T06:16:52.595Z,11.77
2018-06-01T06:19:20.587Z,12.20
2018-06-01T06:21:48.359Z,13.07
2018-06-01T06:24:16.033Z,10.18
2018-06-01T06:26:43.809Z,9.45
2018-06-01T06:29:11.516Z,14.60
2018-06-01T06:31:39.465Z,9.55
2018-06-01T06:34:07.096Z,9.27
2018-06-01T06:36:35.734Z,14.52
2018-06-01T06:39:03.537Z,18.12
2018-06-01T06:41:31.209Z,9.17
2018-06-01T06:43:58.961Z,13.80
2018-06-01T06:46:26.784Z,11.15
2018-06-01T06:48:54.556Z,12.45
2018-06-01T06:51:22.289Z,19.40
2018-06-01T06:53:50.176Z,16.75
2018-06-01T06:56:17.946Z,18.40
2018-06-01T06:58:45.628Z,8.88
2018-06-01T07:01:13.394Z,17.12
2018-06-01T07:03:41.274Z,19.48
2018-06-01T07:06:08.969Z,11.02
2018-06-01T07:08:36.757Z,11.65
2018-06-01T07:11:04.500Z,13.23
2018-06-01T07:13:32.198Z,19.00
2018-06-01T07:15:59.874Z,12.25
2018-06-01T07:18:27.549Z,12.27
2018-06-01T07:20:55.403Z,16.80
2018-06-01T07:23:23.282Z,14.65
2018-06-01T07:25:51.262Z,17.37
2018-06-01T07:28:19.245Z,18.83
2018-06-01T07:30:46.941Z,15.90
2018-06-01T07:33:14.606Z,12.70
2018-06-01T07:35:42.469Z,13.80
2018-06-01T07:38:10.145Z,10.73
2018-06-01T07:40:37.836Z,17.90
2018-06-01T07:43:05.597Z,18.50
2018-06-01T07:45:33.375Z,17.02
2018-06-01T07:48:01.030Z,21.15
2018-06-01T07:50:28.948Z,14.45
2018-06-01T07:52:56.828Z,20.07
2018-06-01T07:55:24.685Z,17.50
2018-06-01T07:57:52.656Z,18.70
2018-06-01T08:00:20.560Z,14.85
2018-06-01T08:02:48.236Z,16.65
2018-06-01T08:05:16.092Z,17.67
2018-06-01T08:07:43.748Z,16.77
2018-06-01T08:10:11.468Z,19.25
2018-06-01T08:12:39.319Z,12.88
2018-06-01T08:15:07.027Z,11.25
2018-06-01T08:17:34.688Z,8.43
2018-06-01T08:20:02.363Z,7.43
2018-06-01T08:22:29.993Z,8.30
2018-06-01T08:24:57.713Z,7.35
2018-06-01T08:27:25.592Z,6.77
2018-06-01T08:29:53.283Z,7.32
2018-06-01T08:32:21.240Z,7.25
2018-06-01T08:34:48.999Z,5.20
2018-06-01T08:37:16.775Z,7.65
2018-06-01T08:39:44.453Z,6.80
2018-06-01T08:42:12.146Z,6.90
2018-06-01T08:44:40.001Z,5.78
2018-06-01T08:47:07.800Z,5.60
2018-06-01T08:49:35.507Z,6.70
2018-06-01T08:52:04.048Z,7.12
2018-06-01T08:54:31.824Z,5.25
2018-06-01T08:56:59.523Z,7.35
2018-06-01T08:59:27.172Z,9.00
2018-06-01T09:01:55.153Z,6.85
2018-06-01T09:04:22.932Z,8.18
2018-06-01T09:06:50.729Z,6.07
2018-06-01T09:09:18.685Z,5.83
2018-06-01T09:11:46.409Z,8.37
2018-06-01T09:14:14.057Z,7.68
2018-06-01T09:16:41.989Z,4.62
2018-06-01T09:19:09.800Z,4.68
2018-06-01T09:21:37.670Z,7.68
2018-06-01T09:24:05.446Z,6.80
2018-06-01T09:26:33.121Z,6.80
2018-06-01T09:29:00.795Z,9.27
2018-06-01T09:31:28.574Z,6.83
2018-06-01T09:33:56.553Z,8.90
2018-06-01T09:36:24.459Z,9.18
2018-06-01T09:38:53.239Z,8.38
2018-06-01T09:41:21.959Z,8.00
2018-06-01T09:43:50.525Z,7.68
2018-06-01T09:46:18.220Z,5.62
2018-06-01T09:48:45.880Z,7.05
2018-06-01T09:51:13.564Z,5.90
2018-06-01T09:53:41.345Z,4.75
2018-06-01T09:56:09.125Z,5.70
2018-06-01T09:58:36.977Z,3.75
2018-06-01T10:01:10.724Z,4.25
2018-06-01T10:03:38.570Z,4.70
2018-06-01T10:06:06.248Z,5.30
2018-06-01T10:08:34.022Z,5.03
2018-06-01T10:11:07.453Z,4.87
2018-06-01T10:13:35.309Z,5.53
2018-06-01T10:16:03.083Z,5.65
2018-06-01T10:18:30.785Z,6.47
2018-06-01T10:20:58.535Z,6.80
2018-06-01T10:23:26.217Z,8.90
2018-06-01T10:25:54.011Z,7.60
2018-06-01T10:28:21.789Z,8.10
2018-06-01T10:30:49.460Z,4.18
2018-06-01T10:33:17.210Z,5.45
2018-06-01T10:35:44.904Z,4.68
2018-06-01T10:38:12.536Z,4.70
2018-06-01T10:40:40.334Z,3.65
2018-06-01T10:43:08.147Z,4.90
2018-06-01T10:45:36.626Z,4.30
2018-06-01T10:48:04.277Z,5.30
2018-06-01T10:50:32.055Z,4.43
2018-06-01T10:52:59.831Z,4.07
2018-06-01T10:55:27.512Z,4.50
2018-06-01T10:57:55.178Z,4.22
2018-06-01T11:00:23.368Z,4.87
2018-06-01T11:02:51.073Z,4.62
2018-06-01T11:05:19.123Z,5.50
2018-06-01T11:07:46.816Z,4.45
2018-06-01T11:10:14.571Z,4.35
2018-06-01T11:12:42.348Z,4.30
2018-06-01T11:15:10.124Z,5.20
2018-06-01T11:17:37.901Z,4.75
2018-06-01T11:20:06.312Z,4.18
2018-06-01T11:22:34.072Z,5.22
2018-06-01T11:25:01.844Z,3.92
2018-06-01T11:27:29.725Z,4.30
2018-06-01T11:29:57.502Z,3.40
2018-06-01T11:32:25.276Z,3.33
2018-06-01T11:34:53.163Z,2.90
2018-06-01T11:37:21.137Z,2.72
2018-06-01T11:39:48.828Z,2.90
2018-06-01T11:42:16.505Z,2.60
2018-06-01T11:44:44.177Z,2.25
2018-06-01T11:47:11.856Z,2.47
2018-06-01T11:49:39.813Z,2.55
2018-06-01T11:52:07.590Z,2.78
2018-06-01T11:54:35.364Z,2.70
2018-06-01T11:57:03.141Z,3.10
2018-06-01T11:59:30.918Z,3.30
2018-06-01T12:01:58.694Z,2.87
2018-06-01T12:04:26.388Z,5.18
2018-06-01T12:06:54.350Z,5.33
2018-06-01T12:09:22.228Z,5.30
2018-06-01T12:11:49.898Z,6.00
2018-06-01T12:14:17.676Z,6.80
2018-06-01T12:16:45.454Z,7.55
2018-06-01T12:19:13.260Z,7.65
2018-06-01T12:21:41.006Z,7.65
2018-06-01T12:24:08.919Z,8.75
2018-06-01T12:26:36.783Z,9.30
2018-06-01T12:29:04.515Z,9.40
2018-06-01T12:31:32.920Z,10.65
2018-06-01T12:34:00.649Z,12.60
2018-06-01T12:36:28.292Z,10.40
2018-06-01T12:38:56.076Z,11.07
2018-06-01T12:41:23.787Z,10.93
2018-06-01T12:43:51.732Z,11.73
2018-06-01T12:46:19.509Z,14.13
2018-06-01T12:48:47.491Z,13.38
2018-06-01T12:51:15.141Z,13.10
2018-06-01T12:53:42.811Z,13.00
2018-06-01T12:56:10.638Z,13.52
2018-06-01T12:58:39.346Z,11.30
2018-06-01T13:01:07.393Z,12.77
2018-06-01T13:03:35.110Z,11.53
2018-06-01T13:06:02.947Z,11.57
2018-06-01T13:08:30.580Z,10.52
2018-06-01T13:10:59.033Z,11.27
2018-06-01T13:13:26.786Z,12.65
2018-06-01T13:15:54.560Z,11.75
2018-06-01T13:18:22.369Z,13.13
2018-06-01T13:20:50.262Z,13.13
2018-06-01T13:23:18.813Z,12.02
2018-06-01T13:25:46.541Z,12.77
2018-06-01T13:28:15.001Z,13.48
2018-06-01T13:30:42.776Z,12.40
2018-06-01T13:33:10.453Z,13.82
2018-06-01T13:35:38.203Z,14.32
2018-06-01T13:38:05.980Z,13.73
2018-06-01T13:40:33.863Z,14.47
2018-06-01T13:43:01.557Z,13.32
2018-06-01T13:45:29.242Z,16.73
2018-06-01T13:47:57.008Z,13.88
2018-06-01T13:50:24.788Z,15.30
2018-06-01T13:52:52.457Z,15.23
2018-06-01T13:55:20.237Z,15.35
2018-06-01T13:57:48.216Z,14.03
2018-06-01T14:00:16.071Z,13.07
2018-06-01T14:02:43.764Z,13.35
2018-06-01T14:05:11.540Z,13.48
2018-06-01T14:07:39.295Z,12.23
2018-06-01T14:10:07.072Z,14.25
2018-06-01T14:12:35.074Z,15.73
2018-06-01T14:15:02.728Z,15.30
2018-06-01T14:17:30.416Z,16.85
2018-06-01T14:19:58.065Z,14.45
2018-06-01T14:22:25.954Z,15.52
2018-06-01T14:24:53.760Z,14.73
2018-06-01T14:27:21.571Z,16.87
2018-06-01T14:29:50.024Z,17.33
2018-06-01T14:32:17.877Z,16.25
2018-06-01T14:34:45.576Z,14.60
2018-06-01T14:37:13.336Z,14.40
2018-06-01T14:39:41.306Z,14.98
2018-06-01T14:42:09.194Z,15.60
2018-06-01T14:44:36.844Z,15.63
2018-06-01T14:47:04.660Z,13.55
2018-06-01T14:49:32.413Z,14.77
2018-06-01T14:52:00.217Z,13.95
2018-06-01T14:54:28.007Z,14.77
2018-06-01T14:56:55.833Z,13.98
2018-06-01T14:59:23.934Z,13.85
2018-06-01T15:01:52.106Z,15.85
2018-06-01T15:04:20.536Z,16.10
2018-06-01T15:06:48.282Z,14.60
2018-06-01T15:09:16.054Z,13.73
2018-06-01T15:11:43.830Z,14.65
2018-06-01T15:14:11.635Z,15.52
2018-06-01T15:16:39.488Z,14.57
2018-06-01T15:19:07.268Z,15.00
2018-06-01T15:21:35.117Z,15.07
2018-06-01T15:24:02.808Z,15.55
2018-06-01T15:26:30.513Z,15.43
2018-06-01T15:28:58.288Z,14.77
2018-06-01T15:31:26.044Z,15.25
2018-06-01T15:33:54.084Z,13.75
2018-06-01T15:36:21.837Z,15.35
2018-06-01T15:38:49.886Z,14.45
2018-06-01T15:41:17.537Z,14.15
2018-06-01T15:43:45.224Z,13.00
2018-06-01T15:46:13.012Z,14.20
2018-06-01T15:48:40.701Z,13.73
2018-06-01T15:51:08.464Z,13.55
2018-06-01T15:53:36.212Z,13.10
2018-06-01T15:56:04.012Z,13.32
2018-06-01T15:58:32.097Z,13.90
2018-06-01T16:01:00.038Z,14.70
2018-06-01T16:03:29.391Z,14.20
2018-06-01T16:05:57.066Z,14.13
2018-06-01T16:08:24.949Z,14.75
2018-06-01T16:10:52.718Z,14.48
2018-06-01T16:13:20.496Z,14.30
2018-06-01T16:15:48.301Z,14.20
2018-06-01T16:18:16.051Z,14.55
2018-06-01T16:20:43.926Z,13.57
2018-06-01T16:23:11.702Z,14.50
2018-06-01T16:25:39.400Z,14.55
2018-06-01T16:28:07.153Z,14.80
2018-06-01T16:30:34.930Z,14.70
2018-06-01T16:33:02.633Z,14.18
2018-06-01T16:35:30.626Z,15.43
2018-06-01T16:37:58.418Z,13.55
2018-06-01T16:40:26.955Z,13.73
2018-06-01T16:42:54.653Z,12.60
2018-06-01T16:45:22.405Z,12.75
2018-06-01T16:47:50.196Z,12.32
2018-06-01T16:50:18.169Z,13.62
2018-06-01T16:52:45.940Z,12.95
2018-06-01T16:55:13.583Z,11.65
2018-06-01T16:57:42.209Z,12.20
2018-06-01T17:00:09.844Z,12.27
2018-06-01T17:02:38.377Z,12.15
2018-06-01T17:05:06.151Z,12.52
2018-06-01T17:07:33.844Z,11.93
2018-06-01T17:10:01.603Z,13.15
2018-06-01T17:12:29.378Z,13.57
2018-06-01T17:14:57.189Z,12.73
2018-06-01T17:17:24.999Z,12.93
2018-06-01T17:19:52.672Z,12.52
2018-06-01T17:22:20.354Z,12.50
2018-06-01T17:24:48.124Z,11.73
2018-06-01T17:27:15.898Z,11.05
2018-06-01T17:29:43.537Z,12.10
2018-06-01T17:32:11.451Z,11.90
2018-06-01T17:34:39.437Z,12.05
2018-06-01T17:37:07.353Z,11.52
2018-06-01T17:39:36.011Z,11.00
2018-06-01T17:42:03.711Z,10.88
2018-06-01T17:44:32.201Z,10.63
2018-06-01T17:46:59.872Z,10.40
2018-06-01T17:49:27.544Z,9.80
2018-06-01T17:51:55.301Z,10.13
2018-06-01T17:54:23.078Z,9.83
2018-06-01T17:56:50.785Z,9.97
2018-06-01T17:59:18.631Z,9.45
2018-06-01T18:01:46.328Z,10.43
2018-06-01T18:04:14.113Z,9.85
2018-06-01T18:06:41.873Z,9.68
2018-06-01T18:09:10.398Z,9.40
2018-06-01T18:11:38.163Z,8.90
2018-06-01T18:14:06.108Z,8.93
2018-06-01T18:16:33.886Z,9.10
2018-06-01T18:19:01.660Z,8.43
2018-06-01T18:21:29.297Z,9.40
2018-06-01T18:23:57.826Z,8.82
2018-06-01T18:26:25.603Z,8.48
2018-06-01T18:28:53.277Z,8.48
2018-06-01T18:31:20.977Z,8.48
2018-06-01T18:33:48.834Z,8.02
2018-06-01T18:36:16.533Z,8.20
2018-06-01T18:38:44.217Z,7.68
2018-06-01T18:41:12.061Z,7.40
2018-06-01T18:43:39.939Z,7.47
2018-06-01T18:46:08.022Z,7.93
2018-06-01T18:48:35.797Z,7.22
2018-06-01T18:51:03.572Z,7.97
2018-06-01T18:53:31.269Z,7.87
2018-06-01T18:55:59.046Z,8.02
2018-06-01T18:58:26.799Z,7.95
2018-06-01T19:00:54.465Z,8.15
2018-06-01T19:03:22.249Z,8.90
2018-06-01T19:05:49.912Z,8.40
2018-06-01T19:08:17.624Z,8.82
2018-06-01T19:10:45.401Z,8.32
2018-06-01T19:13:13.033Z,9.05
2018-06-01T19:15:40.759Z,9.10
2018-06-01T19:18:08.605Z,10.15
2018-06-01T19:20:36.929Z,9.67
2018-06-01T19:23:04.624Z,10.50
2018-06-01T19:25:33.259Z,10.65
2018-06-01T19:28:00.956Z,11.63
2018-06-01T19:30:28.605Z,11.60
2018-06-01T19:32:56.308Z,10.50
2018-06-01T19:35:23.983Z,11.10
2018-06-01T19:37:51.731Z,12.75
2018-06-01T19:40:19.445Z,12.53
2018-06-01T19:42:47.182Z,11.75
2018-06-01T19:45:14.840Z,12.60
2018-06-01T19:47:43.586Z,11.75
2018-06-01T19:50:11.253Z,11.88
2018-06-01T19:52:39.107Z,12.00
2018-06-01T19:55:07.120Z,11.67
2018-06-01T19:57:35.789Z,11.88
2018-06-01T20:00:03.662Z,10.63
2018-06-01T20:02:31.443Z,12.40
2018-06-01T20:04:59.136Z,12.35
2018-06-01T20:07:26.804Z,12.80
2018-06-01T20:09:54.461Z,12.15
2018-06-01T20:12:22.260Z,12.68
2018-06-01T20:14:49.936Z,12.27
2018-06-01T20:17:17.613Z,12.65
2018-06-01T20:19:45.364Z,13.35
2018-06-01T20:22:13.063Z,14.15
2018-06-01T20:24:40.857Z,12.90
2018-06-01T20:27:08.723Z,14.30
2018-06-01T20:29:36.610Z,13.05
2018-06-01T20:32:04.368Z,13.95
2018-06-01T20:34:32.144Z,13.82
2018-06-01T20:36:59.790Z,12.60
2018-06-01T20:39:27.492Z,12.57
2018-06-01T20:41:56.219Z,11.38
2018-06-01T20:44:24.762Z,9.38
2018-06-01T20:46:52.460Z,10.43
2018-06-01T20:49:20.213Z,12.23
2018-06-01T20:51:47.848Z,11.38
2018-06-01T20:54:16.404Z,10.77
2018-06-01T20:56:44.210Z,11.30
2018-06-01T20:59:12.060Z,11.10
2018-06-01T21:01:39.845Z,9.73
2018-06-01T21:04:07.691Z,12.07
2018-06-01T21:06:35.481Z,10.75
2018-06-01T21:09:03.277Z,13.70
2018-06-01T21:11:31.041Z,11.20
2018-06-01T21:15:26.766Z,11.48
2018-06-01T21:17:54.541Z,11.10
2018-06-01T21:20:22.249Z,12.00
2018-06-01T21:22:50.741Z,9.15
2018-06-01T21:25:18.518Z,9.90
2018-06-01T21:27:46.195Z,11.00
2018-06-01T21:30:14.139Z,8.43
2018-06-01T21:32:41.928Z,10.95
2018-06-01T21:35:09.726Z,11.68
2018-06-01T21:37:37.472Z,9.98
2018-06-01T21:40:05.219Z,11.75
2018-06-01T21:42:33.027Z,11.60
2018-06-01T21:45:00.799Z,12.53
2018-06-01T21:47:28.578Z,11.52
2018-06-01T21:49:56.277Z,12.45
2018-06-01T21:52:24.132Z,11.27
2018-06-01T21:54:51.904Z,13.15
2018-06-01T21:57:19.600Z,12.55
2018-06-01T21:59:47.277Z,10.52
2018-06-01T22:02:15.055Z,10.73
2018-06-01T22:04:42.811Z,10.55
2018-06-01T22:07:10.797Z,10.02
2018-06-01T22:09:38.666Z,10.23
2018-06-01T22:12:06.374Z,12.48
2018-06-01T22:14:34.216Z,12.25
2018-06-01T22:17:01.917Z,12.80
2018-06-01T22:19:29.692Z,12.55
2018-06-01T22:21:57.546Z,8.60
2018-06-01T22:24:25.321Z,9.17
2018-06-01T22:26:53.124Z,10.98
2018-06-01T22:29:20.875Z,9.27
2018-06-01T22:31:48.651Z,10.90
2018-06-01T22:34:16.325Z,7.43
2018-06-01T22:36:44.109Z,12.02
2018-06-01T22:39:11.879Z,10.50
2018-06-01T22:41:39.605Z,12.37
2018-06-01T22:44:07.533Z,13.25
2018-06-01T22:46:35.233Z,13.80
2018-06-01T22:49:03.005Z,12.35
2018-06-01T22:51:30.757Z,11.57
2018-06-01T22:53:58.456Z,11.00
2018-06-01T22:56:26.133Z,10.90
2018-06-01T22:58:53.808Z,12.68
2018-06-01T23:01:21.440Z,11.77
2018-06-01T23:03:49.334Z,11.40
2018-06-01T23:06:17.030Z,9.43
2018-06-01T23:08:44.784Z,8.65
2018-06-01T23:11:12.560Z,8.93
2018-06-01T23:13:40.365Z,8.15
2018-06-01T23:16:08.207Z,9.98
2018-06-01T23:18:36.110Z,12.95
2018-06-01T23:21:03.869Z,9.82
2018-06-01T23:23:31.504Z,10.15
2018-06-01T23:26:00.035Z,9.48
2018-06-01T23:28:27.733Z,10.32
2018-06-01T23:30:55.588Z,9.07
2018-06-01T23:33:23.262Z,8.73
2018-06-01T23:35:50.960Z,10.00
2018-06-01T23:38:18.610Z,10.13
2018-06-01T23:40:46.387Z,8.45
2018-06-01T23:43:14.029Z,10.40
2018-06-01T23:45:42.656Z,10.63
2018-06-01T23:48:10.433Z,10.45
2018-06-01T23:50:38.401Z,8.93
2018-06-01T23:53:06.393Z,8.63
2018-06-01T23:55:34.301Z,11.30
2018-06-01T23:58:01.972Z,11.07
